RJCW/WKJ METAR and TAF weather

Enter ICAO airport designator
Station Type Date Time Source
RJCW METAR 2021/06/22 09:00 UTC NOAA

RJCW 220900Z 03004KT 9999 FEW030 16/13 Q1011


Station Type Date Time Source
RJCW Decoded METAR 2021/06/22 09:00 UTC NOAA

Wakkanai Airport, Japan (RJCW) 45-24N 141-48E 11M
Jun 22, 2021 - 05:00 AM EDT / 2021.06.22 0900 UTC
Wind: from the NNE (030 degrees) at 5 MPH (4 KT):0
Visibility: greater than 7 mile(s):0
Sky conditions: mostly clear
Temperature: 60 F (16 C)
Dew Point: 55 F (13 C)
Relative Humidity: 82%
Pressure (altimeter): 29.85 in. Hg (1011 hPa)
ob: RJCW 220900Z 03004KT 9999 FEW030 16/13 Q1011
cycle: 9

Station Type Date Time Source
RJCW TAF UTC NOAA

Error!

Example: see airport list